createdAt,value
2018-07-04T00:01:37.656Z,1.70
2018-07-04T00:04:53.343Z,1.60
2018-07-04T00:08:09.093Z,2.00
2018-07-04T00:11:24.691Z,2.00
2018-07-04T00:14:40.310Z,2.10
2018-07-04T00:17:57.241Z,2.47
2018-07-04T00:21:13.825Z,2.00
2018-07-04T00:24:29.587Z,2.40
2018-07-04T00:27:45.000Z,1.87
2018-07-04T00:31:00.486Z,1.40
2018-07-04T00:34:16.138Z,1.30
2018-07-04T00:37:31.747Z,1.43
2018-07-04T00:40:47.296Z,1.50
2018-07-04T00:44:02.893Z,1.40
2018-07-04T00:47:18.750Z,1.60
2018-07-04T00:50:34.615Z,1.90
2018-07-04T00:53:50.377Z,1.90
2018-07-04T00:57:06.098Z,1.50
2018-07-04T01:00:22.475Z,1.40
2018-07-04T01:03:38.179Z,1.70
2018-07-04T01:06:53.915Z,1.90
2018-07-04T01:10:09.771Z,2.27
2018-07-04T01:13:25.529Z,2.07
2018-07-04T01:16:41.213Z,1.97
2018-07-04T01:19:57.001Z,2.20
2018-07-04T01:23:12.861Z,1.67
2018-07-04T01:26:29.477Z,2.30
2018-07-04T01:29:45.393Z,1.63
2018-07-04T01:33:01.302Z,2.20
2018-07-04T01:36:17.228Z,2.10
2018-07-04T01:39:33.272Z,1.90
2018-07-04T01:42:49.423Z,1.60
2018-07-04T01:46:05.197Z,1.70
2018-07-04T01:49:20.834Z,1.60
2018-07-04T01:52:36.807Z,1.67
2018-07-04T01:55:52.944Z,1.50
2018-07-04T01:59:09.141Z,1.43
2018-07-04T02:02:24.936Z,1.53
2018-07-04T02:05:41.027Z,1.50
2018-07-04T02:08:58.349Z,1.53
2018-07-04T02:12:14.107Z,1.63
2018-07-04T02:15:30.450Z,1.90
2018-07-04T02:18:46.250Z,1.80
2018-07-04T02:22:02.456Z,1.70
2018-07-04T02:25:18.540Z,1.63
2018-07-04T02:28:34.737Z,1.90
2018-07-04T02:31:50.625Z,1.60
2018-07-04T02:35:06.194Z,1.70
2018-07-04T02:38:22.077Z,1.83
2018-07-04T02:41:37.969Z,1.70
2018-07-04T02:44:53.682Z,2.03
2018-07-04T02:48:09.544Z,1.87
2018-07-04T02:51:26.252Z,1.97
2018-07-04T02:54:42.156Z,1.90
2018-07-04T02:57:59.148Z,2.20
2018-07-04T03:01:15.276Z,1.90
2018-07-04T03:04:31.193Z,1.70
2018-07-04T03:07:47.051Z,1.53
2018-07-04T03:11:03.381Z,1.50
2018-07-04T03:14:19.438Z,1.60
2018-07-04T03:17:35.842Z,2.10
2018-07-04T03:20:51.963Z,1.60
2018-07-04T03:24:07.962Z,1.70
2018-07-04T03:27:23.945Z,1.97
2018-07-04T03:30:39.717Z,2.43
2018-07-04T03:33:56.740Z,2.40
2018-07-04T03:37:12.489Z,1.90
2018-07-04T03:40:28.275Z,2.13
2018-07-04T03:43:44.042Z,2.00
2018-07-04T03:46:59.839Z,1.80
2018-07-04T03:50:15.805Z,1.70
2018-07-04T03:53:31.548Z,1.77
2018-07-04T03:56:47.414Z,1.60
2018-07-04T04:00:03.585Z,1.80
2018-07-04T04:03:19.688Z,1.90
2018-07-04T04:06:37.005Z,2.00
2018-07-04T04:09:52.847Z,1.80
2018-07-04T04:13:10.206Z,2.10
2018-07-04T04:16:26.422Z,2.17
2018-07-04T04:19:43.225Z,2.00
2018-07-04T04:23:00.362Z,2.13
2018-07-04T04:26:17.249Z,2.30
2018-07-04T04:29:34.292Z,2.23
2018-07-04T04:32:50.908Z,2.27
2018-07-04T04:36:06.840Z,1.70
2018-07-04T04:39:23.197Z,2.10
2018-07-04T04:42:39.068Z,2.00
2018-07-04T04:45:54.891Z,1.93
2018-07-04T04:49:12.731Z,2.47
2018-07-04T04:52:29.030Z,1.97
2018-07-04T04:55:44.666Z,2.20
2018-07-04T04:59:00.449Z,2.03
2018-07-04T05:02:16.160Z,2.37
2018-07-04T05:05:32.804Z,2.00
2018-07-04T05:08:49.374Z,2.37
2018-07-04T05:12:05.220Z,2.00
2018-07-04T05:15:20.929Z,2.20
2018-07-04T05:18:36.910Z,2.53
2018-07-04T05:21:53.249Z,6.00
2018-07-04T05:25:10.108Z,2.40
2018-07-04T05:28:26.910Z,2.73
2018-07-04T05:31:42.964Z,2.37
2018-07-04T05:34:58.662Z,2.30
2018-07-04T05:38:14.490Z,2.30
2018-07-04T05:41:30.753Z,2.20
2018-07-04T05:44:46.720Z,2.40
2018-07-04T05:48:02.791Z,2.40
2018-07-04T05:51:21.299Z,2.47
2018-07-04T05:54:52.912Z,2.17
2018-07-04T05:58:20.206Z,2.20
2018-07-04T06:01:39.460Z,2.67
2018-07-04T06:04:59.279Z,2.17
2018-07-04T06:08:15.484Z,2.50
2018-07-04T06:15:27.230Z,2.30
2018-07-04T06:18:42.949Z,2.57
2018-07-04T06:21:59.269Z,2.20
2018-07-04T06:25:15.068Z,2.17
2018-07-04T06:28:30.970Z,2.30
2018-07-04T06:31:46.792Z,1.93
2018-07-04T06:35:02.515Z,2.00
2018-07-04T06:38:06.018Z,2.03
2018-07-04T06:41:09.482Z,2.27
2018-07-04T06:44:12.589Z,1.90
2018-07-04T06:47:15.630Z,2.40
2018-07-04T06:50:18.895Z,1.95
2018-07-04T06:53:22.211Z,2.22
2018-07-04T06:56:25.486Z,1.77
2018-07-04T06:59:28.596Z,1.83
2018-07-04T07:02:31.793Z,2.17
2018-07-04T07:05:47.610Z,2.17
2018-07-04T07:09:03.290Z,1.70
2018-07-04T07:12:19.117Z,2.03
2018-07-04T07:15:35.132Z,2.23
2018-07-04T07:18:51.159Z,1.80
2018-07-04T07:22:06.926Z,2.07
2018-07-04T07:25:22.463Z,2.20
2018-07-04T07:28:38.103Z,2.13
2018-07-04T07:31:53.929Z,1.90
2018-07-04T07:35:09.810Z,1.87
2018-07-04T07:38:25.727Z,2.20
2018-07-04T07:41:41.322Z,2.20
2018-07-04T07:44:57.030Z,2.22
2018-07-04T07:48:12.667Z,3.67
2018-07-04T07:51:28.226Z,2.12
2018-07-04T07:54:43.797Z,1.90
2018-07-04T07:57:59.452Z,1.87
2018-07-04T08:01:14.911Z,1.75
2018-07-04T08:04:30.401Z,1.80
2018-07-04T08:07:46.466Z,2.10
2018-07-04T08:11:02.037Z,1.90
2018-07-04T08:14:17.615Z,1.80
2018-07-04T08:17:33.290Z,1.67
2018-07-04T08:20:48.978Z,1.70
2018-07-04T08:24:04.805Z,2.05
2018-07-04T08:27:20.566Z,2.02
2018-07-04T08:30:36.684Z,1.80
2018-07-04T08:33:52.426Z,1.77
2018-07-04T08:37:08.200Z,2.10
2018-07-04T08:40:24.045Z,1.70
2018-07-04T08:43:39.646Z,1.95
2018-07-04T08:46:56.910Z,1.60
2018-07-04T08:50:15.203Z,1.70
2018-07-04T08:53:30.939Z,1.42
2018-07-04T08:56:46.565Z,1.30
2018-07-04T09:00:03.166Z,1.52
2018-07-04T09:03:18.806Z,1.62
2018-07-04T09:06:34.932Z,1.62
2018-07-04T09:09:50.393Z,1.60
2018-07-04T09:13:06.145Z,1.75
2018-07-04T09:16:21.794Z,1.40
2018-07-04T09:19:37.704Z,1.52
2018-07-04T09:22:53.263Z,1.42
2018-07-04T09:26:09.234Z,1.70
2018-07-04T09:29:25.335Z,1.87
2018-07-04T09:32:41.427Z,1.72
2018-07-04T09:35:57.182Z,1.67
2018-07-04T09:39:13.188Z,1.40
2018-07-04T09:42:28.765Z,1.50
2018-07-04T09:45:44.561Z,1.45
2018-07-04T09:49:00.143Z,1.30
2018-07-04T09:52:16.250Z,1.50
2018-07-04T09:55:32.018Z,1.30
2018-07-04T09:58:50.984Z,2.08
2018-07-04T10:02:07.255Z,1.35
2018-07-04T10:05:24.939Z,1.45
2018-07-04T10:08:42.377Z,1.50
2018-07-04T10:11:57.995Z,1.82
2018-07-04T10:15:22.360Z,1.95
2018-07-04T10:19:28.183Z,1.75
2018-07-04T10:22:53.781Z,1.62
2018-07-04T10:45:59.821Z,2.00
2018-07-04T11:23:31.118Z,2.53
2018-07-04T11:27:04.407Z,2.73
2018-07-04T11:34:14.251Z,2.40
2018-07-04T11:37:31.365Z,2.80
2018-07-04T11:40:52.898Z,2.40
2018-07-04T11:44:12.537Z,2.37
2018-07-04T11:47:16.010Z,2.30
2018-07-04T11:53:36.444Z,2.60
2018-07-04T11:56:43.853Z,2.70
2018-07-04T12:03:31.881Z,2.97
2018-07-04T12:07:39.798Z,2.63
2018-07-04T12:10:53.641Z,3.20
2018-07-04T12:14:25.945Z,2.90
2018-07-04T12:17:36.270Z,2.70
2018-07-04T12:24:12.162Z,2.90
2018-07-04T12:27:15.557Z,2.50
2018-07-04T12:30:18.842Z,2.70
2018-07-04T12:33:22.103Z,2.57
2018-07-04T12:36:28.924Z,3.03
2018-07-04T12:39:36.214Z,2.80
2018-07-04T12:42:54.563Z,2.60
2018-07-04T12:45:58.045Z,3.10
2018-07-04T12:49:03.295Z,3.13
2018-07-04T12:52:07.631Z,3.00
2018-07-04T12:55:24.500Z,3.03
2018-07-04T12:58:40.095Z,2.90
2018-07-04T13:02:59.784Z,2.70
2018-07-04T13:06:16.405Z,2.80
2018-07-04T13:09:33.549Z,2.80
2018-07-04T13:12:49.278Z,2.90
2018-07-04T13:16:04.980Z,2.80
2018-07-04T13:19:20.952Z,2.63
2018-07-04T13:22:36.461Z,2.97
2018-07-04T13:25:51.961Z,3.30
2018-07-04T13:29:10.455Z,3.00
2018-07-04T13:32:30.630Z,3.43
2018-07-04T13:35:46.386Z,2.80
2018-07-04T13:39:01.954Z,2.87
2018-07-04T13:42:17.814Z,2.80
2018-07-04T13:45:33.495Z,2.97
2018-07-04T13:48:49.272Z,3.03
2018-07-04T13:52:04.829Z,4.13
2018-07-04T13:55:21.280Z,2.90
2018-07-04T13:58:36.695Z,3.00
2018-07-04T14:01:52.618Z,2.83
2018-07-04T14:05:08.300Z,2.70
2018-07-04T14:08:23.872Z,2.97
2018-07-04T14:11:39.461Z,3.20
2018-07-04T14:14:59.891Z,2.97
2018-07-04T14:18:15.674Z,2.90
2018-07-04T14:21:33.235Z,3.17
2018-07-04T14:24:49.101Z,2.80
2018-07-04T14:28:04.950Z,2.50
2018-07-04T14:31:20.748Z,3.20
2018-07-04T14:34:30.668Z,2.70
2018-07-04T14:37:46.685Z,2.67
2018-07-04T14:41:02.329Z,3.10
2018-07-04T14:44:17.961Z,2.93
2018-07-04T14:47:33.590Z,2.70
2018-07-04T14:50:49.648Z,2.70
2018-07-04T14:54:05.233Z,2.70
2018-07-04T14:57:21.012Z,3.17
2018-07-04T15:00:36.650Z,3.00
2018-07-04T15:03:53.175Z,3.10
2018-07-04T15:07:09.704Z,2.73
2018-07-04T15:10:25.334Z,2.80
2018-07-04T15:13:41.971Z,2.70
2018-07-04T15:16:57.510Z,2.80
2018-07-04T15:20:13.523Z,3.10
2018-07-04T15:23:29.331Z,2.97
2018-07-04T15:26:45.300Z,3.40
2018-07-04T15:30:01.129Z,2.93
2018-07-04T15:33:17.143Z,3.20
2018-07-04T15:36:33.873Z,3.50
2018-07-04T15:40:12.683Z,3.80
2018-07-04T15:43:29.154Z,3.00
2018-07-04T15:46:45.827Z,3.07
2018-07-04T15:50:01.552Z,3.10
2018-07-04T15:53:22.138Z,3.87
2018-07-04T15:56:37.983Z,2.67
2018-07-04T15:59:53.782Z,3.20
2018-07-04T16:03:10.039Z,2.83
2018-07-04T16:06:26.861Z,3.00
2018-07-04T16:09:42.960Z,3.07
2018-07-04T16:12:58.833Z,3.13
2018-07-04T16:16:14.692Z,3.23
2018-07-04T16:19:30.334Z,3.20
2018-07-04T16:22:46.064Z,2.97
2018-07-04T16:26:01.759Z,3.40
2018-07-04T16:29:17.669Z,3.07
2018-07-04T16:32:33.524Z,3.07
2018-07-04T16:35:49.457Z,3.03
2018-07-04T16:39:05.863Z,2.77
2018-07-04T16:42:21.519Z,3.00
2018-07-04T16:45:37.348Z,3.20
2018-07-04T16:48:53.381Z,2.63
2018-07-04T16:52:09.016Z,3.00
2018-07-04T16:55:24.918Z,3.27
2018-07-04T16:58:40.674Z,2.87
2018-07-04T17:01:56.480Z,2.83
2018-07-04T17:05:12.086Z,3.20
2018-07-04T17:08:28.900Z,3.10
2018-07-04T17:11:44.776Z,2.70
2018-07-04T17:15:00.560Z,3.07
2018-07-04T17:18:16.208Z,2.73
2018-07-04T17:21:31.855Z,2.97
2018-07-04T17:24:47.879Z,3.00
2018-07-04T17:28:03.940Z,2.90
2018-07-04T17:31:19.978Z,2.63
2018-07-04T17:34:36.249Z,3.50
2018-07-04T17:37:52.238Z,2.73
2018-07-04T17:41:07.914Z,2.90
2018-07-04T17:44:24.097Z,2.67
2018-07-04T17:47:40.303Z,2.90
2018-07-04T17:50:56.502Z,3.10
2018-07-04T17:54:12.923Z,2.90
2018-07-04T17:57:28.802Z,4.53
2018-07-04T18:00:44.539Z,4.13
2018-07-04T18:04:00.168Z,3.77
2018-07-04T18:07:15.836Z,2.97
2018-07-04T18:10:32.068Z,3.00
2018-07-04T18:13:47.726Z,2.90
2018-07-04T18:17:04.565Z,3.00
2018-07-04T18:20:22.023Z,2.73
2018-07-04T18:23:40.873Z,10.03
2018-07-04T18:26:57.248Z,6.33
2018-07-04T18:30:13.042Z,3.63
2018-07-04T18:33:28.740Z,3.07
2018-07-04T18:36:44.609Z,3.30
2018-07-04T18:40:00.547Z,4.93
2018-07-04T18:43:16.672Z,3.93
2018-07-04T18:46:32.689Z,3.87
2018-07-04T18:49:49.504Z,3.00
2018-07-04T18:53:05.105Z,4.00
2018-07-04T18:56:20.604Z,4.20
2018-07-04T18:59:36.442Z,5.07
2018-07-04T19:02:52.919Z,6.33
2018-07-04T19:06:08.979Z,7.73
2018-07-04T19:09:24.869Z,9.00
2018-07-04T19:12:40.394Z,4.80
2018-07-04T19:15:56.240Z,4.40
2018-07-04T19:19:11.998Z,6.40
2018-07-04T19:22:27.626Z,3.87
2018-07-04T19:25:43.398Z,3.67
2018-07-04T19:29:17.812Z,11.17
2018-07-04T19:32:33.282Z,4.70
2018-07-04T19:35:50.342Z,7.03
2018-07-04T19:39:06.596Z,4.83
2018-07-04T19:42:22.835Z,5.13
2018-07-04T19:45:39.203Z,4.30
2018-07-04T19:48:56.965Z,4.10
2018-07-04T19:52:12.747Z,3.73
2018-07-04T19:55:28.578Z,4.70
2018-07-04T19:58:44.403Z,10.80
2018-07-04T20:02:00.123Z,16.03
2018-07-04T20:05:16.328Z,6.40
2018-07-04T20:08:32.085Z,5.07
2018-07-04T20:11:48.179Z,10.47
2018-07-04T20:15:04.081Z,20.30
2018-07-04T20:18:19.884Z,6.13
2018-07-04T20:25:12.639Z,4.90
2018-07-04T20:28:28.723Z,5.70
2018-07-04T20:31:45.914Z,6.43
2018-07-04T20:35:01.979Z,5.50
2018-07-04T20:38:18.828Z,6.27
2018-07-04T20:41:34.978Z,6.03
2018-07-04T20:44:50.802Z,7.37
2018-07-04T20:48:06.637Z,8.93
2018-07-04T20:51:22.608Z,7.00
2018-07-04T20:54:38.402Z,6.73
2018-07-04T20:57:55.931Z,6.67
2018-07-04T21:01:11.527Z,6.53
2018-07-04T21:04:27.121Z,7.63
2018-07-04T21:07:43.053Z,5.77
2018-07-04T21:10:59.991Z,4.93
2018-07-04T21:14:15.551Z,6.27
2018-07-04T21:17:31.343Z,5.30
2018-07-04T21:20:47.542Z,5.13
2018-07-04T21:24:03.303Z,6.53
2018-07-04T21:27:20.690Z,6.33
2018-07-04T21:30:37.012Z,5.90
2018-07-04T21:33:53.221Z,6.80
2018-07-04T21:37:09.659Z,5.90
2018-07-04T21:40:25.931Z,6.63
2018-07-04T21:43:41.761Z,7.63
2018-07-04T21:46:57.671Z,7.13
2018-07-04T21:50:13.502Z,5.10
2018-07-04T21:53:29.220Z,4.33
2018-07-04T21:56:44.999Z,4.70
2018-07-04T22:00:01.029Z,4.83
2018-07-04T22:03:16.680Z,4.53
2018-07-04T22:06:32.495Z,3.93
2018-07-04T22:09:48.539Z,3.90
2018-07-04T22:13:04.890Z,3.90
2018-07-04T22:16:21.030Z,4.07
2018-07-04T22:19:36.483Z,3.53
2018-07-04T22:22:52.041Z,4.60
2018-07-04T22:26:07.860Z,4.33
2018-07-04T22:29:23.833Z,4.20
2018-07-04T22:32:33.685Z,5.63
2018-07-04T22:35:49.268Z,5.00
2018-07-04T22:39:05.419Z,4.33
2018-07-04T22:42:21.214Z,5.53
2018-07-04T22:45:37.234Z,4.50
2018-07-04T22:48:53.003Z,5.17
2018-07-04T22:52:09.061Z,5.23
2018-07-04T22:55:24.786Z,5.27
2018-07-04T22:58:40.682Z,5.10
2018-07-04T23:01:56.464Z,5.23
2018-07-04T23:05:12.219Z,5.87
2018-07-04T23:08:28.137Z,5.37
2018-07-04T23:11:43.872Z,5.10
2018-07-04T23:14:59.582Z,5.30
2018-07-04T23:18:15.380Z,5.27
2018-07-04T23:21:30.893Z,5.73
2018-07-04T23:24:46.726Z,5.80
2018-07-04T23:28:02.787Z,5.23
2018-07-04T23:31:18.915Z,4.80
2018-07-04T23:34:34.875Z,5.03
2018-07-04T23:37:50.572Z,5.43
2018-07-04T23:41:06.447Z,4.60
2018-07-04T23:44:22.045Z,5.60
2018-07-04T23:47:37.573Z,5.23
2018-07-04T23:50:53.276Z,5.60
2018-07-04T23:54:09.091Z,5.17
2018-07-04T23:57:24.989Z,4.47
